Fortuna, CA

8:39 PM PDT on April 23, 2018 (GMT -0700)
Rohnerville

Weather History for KFOT - August, 2013

Change the Weather History Date:

Wednesday, August 7, 2013

  Actual Average (KEKA) Record (KEKA)
Temperature  
Mean Temperature 58 °F -  
Max Temperature 64 °F 63 °F 82 °F (1991)
Min Temperature 53 °F 53 °F 47 °F (1975)
Degree Days  
Heating Degree Days 6    
Growing Degree Days 8 (Base 50)    
Moisture  
Dew Point 53 °F    
Average Humidity 90    
Maximum Humidity 100    
Minimum Humidity 68    
Precipitation  
Precipitation 0.00 in - - ()
Sea Level Pressure  
Sea Level Pressure 30.08 in    
Wind  
Wind Speed 5 mph (WNW)    
Max Wind Speed 12 mph    
Max Gust Speed -    
Visibility 9 miles    
Events      
Averages and records for this station are not official NWS values.
T = Trace of Precipitation, MM = Missing Value Source: NWS Daily Summary

Daily Weather History Graph

Daily Weather History Graph

Search for Another Location

Airport or City:

Astronomy

Aug. 07, 2013 Rise Set
Actual Time 6:19 AM PDT 8:24 PM PDT
Civil Twilight 5:49 AM PDT 8:54 PM PDT
Nautical Twilight 5:12 AM PDT 9:30 PM PDT
Astronomical Twilight 4:32 AM PDT 10:10 PM PDT
Moon 7:14 AM PDT (8/7) 8:33 PM PDT (8/7)
Length of Visible Light 15h 04m
Length of Day
14h 04m
New Moon, 1% of the Moon is Illuminated
Aug 7
New Moon
Aug 14
First Quarter
Aug 20
Full
Aug 28
Last Quarter
Sep 5
New

Hourly Weather History & Observations

Time (PDT) Temp. Dew Point Humidity Pressure Visibility Wind Dir Wind Speed Gust Speed Precip Events Conditions
12:15 AM 53.6 °F 53.6 °F 100% 30.03 in 10.0 mi NW 8.1 mph - N/A   Overcast
12:35 AM 53.6 °F 51.8 °F 94% 30.04 in 10.0 mi NW 6.9 mph - N/A   Overcast
12:55 AM 53.6 °F 51.8 °F 94% 30.04 in 10.0 mi NW 4.6 mph - N/A   Overcast
1:15 AM 53.6 °F 51.8 °F 94% 30.05 in 10.0 mi WNW 3.5 mph - N/A   Overcast
1:35 AM 53.6 °F 51.8 °F 94% 30.05 in 10.0 mi NW 5.8 mph - N/A   Overcast
1:55 AM 53.6 °F 51.8 °F 94% 30.05 in 10.0 mi WNW 4.6 mph - N/A   Overcast
2:15 AM 53.6 °F 51.8 °F 94% 30.06 in 10.0 mi NNW 3.5 mph - N/A   Overcast
2:35 AM 53.6 °F 51.8 °F 94% 30.06 in 10.0 mi NW 3.5 mph - N/A   Overcast
2:55 AM 53.6 °F 51.8 °F 94% 30.06 in 10.0 mi NW 3.5 mph - N/A   Overcast
3:15 AM 53.6 °F 53.6 °F 100% 30.05 in 10.0 mi Calm Calm - N/A   Overcast
3:35 AM 53.6 °F 53.6 °F 100% 30.05 in 8.0 mi Calm Calm - N/A   Overcast
3:55 AM 53.6 °F 53.6 °F 100% 30.04 in 7.0 mi Calm Calm - N/A   Overcast
4:15 AM 53.6 °F 53.6 °F 100% 30.04 in 6.0 mi Calm Calm - N/A   Overcast
4:35 AM 53.6 °F 53.6 °F 100% 30.04 in 2.0 mi Calm Calm - N/A   Overcast
4:55 AM 53.6 °F 53.6 °F 100% 30.04 in 3.0 mi Calm Calm - N/A   Overcast
5:15 AM 53.6 °F 53.6 °F 100% 30.04 in 4.0 mi Calm Calm - N/A   Overcast
5:35 AM 53.6 °F 53.6 °F 100% 30.04 in 6.0 mi Calm Calm - N/A   Overcast
5:55 AM 53.6 °F 53.6 °F 100% 30.03 in 3.0 mi Calm Calm - N/A   Overcast
6:15 AM 53.6 °F 53.6 °F 100% 30.05 in 5.0 mi WNW 3.5 mph - N/A   Overcast
6:35 AM 53.6 °F 53.6 °F 100% 30.05 in 2.0 mi WNW 3.5 mph - N/A   Overcast
6:55 AM 53.6 °F 53.6 °F 100% 30.06 in 2.5 mi WNW 3.5 mph - N/A   Overcast
7:15 AM 53.6 °F 53.6 °F 100% 30.06 in 1.8 mi WNW 3.5 mph - N/A   Overcast
7:35 AM 53.6 °F 53.6 °F 100% 30.06 in 1.0 mi West 3.5 mph - N/A   Overcast
7:55 AM 53.6 °F 53.6 °F 100% 30.07 in 2.5 mi Calm Calm - N/A   Overcast
8:15 AM 53.6 °F 53.6 °F 100% 30.07 in 5.0 mi Calm Calm - N/A   Overcast
8:35 AM 53.6 °F 53.6 °F 100% 30.07 in 10.0 mi Calm Calm - N/A   Overcast
8:55 AM 55.4 °F 53.6 °F 94% 30.07 in 10.0 mi Calm Calm - N/A   Overcast
9:15 AM 55.4 °F 53.6 °F 94% 30.07 in 10.0 mi Calm Calm - N/A   Overcast
9:35 AM 55.4 °F 53.6 °F 94% 30.07 in 10.0 mi Calm Calm - N/A   Overcast
9:55 AM 57.2 °F 53.6 °F 88% 30.07 in 10.0 mi SSE 3.5 mph - N/A   Overcast
10:15 AM 55.4 °F 53.6 °F 94% 30.07 in 10.0 mi Calm Calm - N/A   Overcast
10:35 AM 57.2 °F 53.6 °F 88% 30.08 in 10.0 mi Calm Calm - N/A   Overcast
10:55 AM 57.2 °F 53.6 °F 88% 30.08 in 10.0 mi NW 5.8 mph - N/A   Overcast
11:15 AM 57.2 °F 53.6 °F 88% 30.09 in 10.0 mi WNW 8.1 mph - N/A   Overcast
11:35 AM 57.2 °F 53.6 °F 88% 30.09 in 10.0 mi NW 11.5 mph - N/A   Overcast
11:55 AM 57.2 °F 53.6 °F 88% 30.10 in 10.0 mi NW 9.2 mph - N/A   Mostly Cloudy
12:15 PM 55.4 °F 53.6 °F 94% 30.10 in 10.0 mi NW 9.2 mph - N/A   Overcast
12:35 PM 55.4 °F 53.6 °F 94% 30.11 in 10.0 mi NW 10.4 mph - N/A   Overcast
12:55 PM 55.4 °F 53.6 °F 94% 30.11 in 10.0 mi WNW 9.2 mph - N/A   Overcast
1:15 PM 55.4 °F 53.6 °F 94% 30.11 in 10.0 mi WNW 9.2 mph - N/A   Overcast
1:35 PM 55.4 °F 53.6 °F 94% 30.11 in 8.0 mi WNW 10.4 mph - N/A   Overcast
1:55 PM 55.4 °F 53.6 °F 94% 30.11 in 5.0 mi WNW 9.2 mph - N/A   Mostly Cloudy
2:15 PM 57.2 °F 53.6 °F 88% 30.11 in 5.0 mi NW 11.5 mph - N/A   Mostly Cloudy
2:35 PM 59.0 °F 55.4 °F 88% 30.11 in 10.0 mi WNW 9.2 mph - N/A   Mostly Cloudy
2:55 PM 59.0 °F 53.6 °F 82% 30.10 in 10.0 mi West 6.9 mph - N/A   Mostly Cloudy
3:15 PM 60.8 °F 55.4 °F 82% 30.09 in 10.0 mi WNW 9.2 mph - N/A   Overcast
3:35 PM 62.6 °F 53.6 °F 72% 30.09 in 10.0 mi West 6.9 mph - N/A   Mostly Cloudy
3:55 PM 62.6 °F 53.6 °F 72% 30.08 in 10.0 mi WNW 8.1 mph - N/A   Mostly Cloudy
4:15 PM 62.6 °F 53.6 °F 72% 30.08 in 10.0 mi NW 10.4 mph - N/A   Overcast
4:35 PM 62.6 °F 53.6 °F 72% 30.08 in 10.0 mi NNW 9.2 mph - N/A   Mostly Cloudy
4:55 PM 62.6 °F 53.6 °F 72% 30.08 in 10.0 mi NW 6.9 mph - N/A   Scattered Clouds
5:15 PM 64.4 °F 53.6 °F 68% 30.08 in 10.0 mi NW 9.2 mph - N/A   Partly Cloudy
5:35 PM 62.6 °F 53.6 °F 72% 30.09 in 10.0 mi NW 9.2 mph - N/A   Mostly Cloudy
5:55 PM 60.8 °F 53.6 °F 77% 30.08 in 10.0 mi WNW 9.2 mph - N/A   Overcast
6:15 PM 60.8 °F 53.6 °F 77% 30.08 in 10.0 mi NNW 9.2 mph - N/A   Overcast
6:35 PM 60.8 °F 53.6 °F 77% 30.08 in 10.0 mi North 10.4 mph - N/A   Overcast
6:55 PM 60.8 °F 53.6 °F 77% 30.08 in 10.0 mi North 10.4 mph - N/A   Overcast
7:15 PM 59.0 °F 53.6 °F 82% 30.09 in 10.0 mi NNW 8.1 mph - N/A   Overcast
7:35 PM 57.2 °F 51.8 °F 82% 30.09 in 10.0 mi NW 8.1 mph - N/A   Overcast
7:55 PM 57.2 °F 51.8 °F 82% 30.09 in 10.0 mi WNW 6.9 mph - N/A   Overcast
8:15 PM 57.2 °F 51.8 °F 82% 30.09 in 10.0 mi WNW 5.8 mph - N/A   Overcast
8:35 PM 57.2 °F 51.8 °F 82% 30.09 in 10.0 mi WNW 6.9 mph - N/A   Overcast
8:55 PM 55.4 °F 51.8 °F 88% 30.09 in 10.0 mi WNW 5.8 mph - N/A   Overcast
9:15 PM 55.4 °F 51.8 °F 88% 30.09 in 10.0 mi West 6.9 mph - N/A   Overcast
9:35 PM 55.4 °F 51.8 °F 88% 30.10 in 10.0 mi WNW 5.8 mph - N/A   Overcast
9:55 PM 55.4 °F 51.8 °F 88% 30.10 in 10.0 mi WNW 4.6 mph - N/A   Overcast
10:15 PM 55.4 °F 51.8 °F 88% 30.10 in 10.0 mi West 5.8 mph - N/A   Overcast
10:35 PM 55.4 °F 51.8 °F 88% 30.09 in 10.0 mi WNW 4.6 mph - N/A   Overcast
10:55 PM 55.4 °F 51.8 °F 88% 30.09 in 10.0 mi WNW 3.5 mph - N/A   Overcast
11:15 PM 55.4 °F 51.8 °F 88% 30.09 in 10.0 mi West 3.5 mph - N/A   Overcast
11:35 PM 55.4 °F 51.8 °F 88% 30.08 in 10.0 mi WNW 3.5 mph - N/A   Overcast
11:55 PM 55.4 °F 51.8 °F 88% 30.08 in 10.0 mi WNW 3.5 mph - N/A   Overcast